createdAt,value
2017-11-10T00:08:52.318Z,1014.6
2017-11-10T00:19:05.690Z,1014.5
2017-11-10T00:29:57.603Z,1014.5
2017-11-10T00:40:14.803Z,1014.4
2017-11-10T00:50:29.060Z,1014.2
2017-11-10T01:00:43.380Z,1014.1
2017-11-10T01:10:57.521Z,1014.0
2017-11-10T01:21:43.958Z,1013.9
2017-11-10T01:32:28.835Z,1014.0
2017-11-10T01:44:23.592Z,1013.7
2017-11-10T01:54:35.854Z,1013.3
2017-11-10T02:04:48.181Z,1013.3
2017-11-10T02:17:09.438Z,1013.1
2017-11-10T02:27:24.736Z,1013.1
2017-11-10T02:37:39.292Z,1012.8
2017-11-10T02:48:44.830Z,1012.7
2017-11-10T02:59:34.569Z,1012.4
2017-11-10T03:10:09.866Z,1012.3
2017-11-10T03:33:10.488Z,1011.9
2017-11-10T03:43:55.895Z,1011.7
2017-11-10T03:54:07.584Z,1011.7
2017-11-10T04:04:21.722Z,1011.7
2017-11-10T04:14:35.665Z,1011.6
2017-11-10T04:26:35.652Z,1011.5
2017-11-10T04:37:15.717Z,1011.1
2017-11-10T04:48:01.038Z,1011.2
2017-11-10T04:58:14.329Z,1011.1
2017-11-10T05:08:59.985Z,1010.9
2017-11-10T05:19:21.072Z,1010.8
2017-11-10T05:29:38.017Z,1010.8
2017-11-10T05:40:23.160Z,1010.6
2017-11-10T05:50:34.632Z,1010.5
2017-11-10T06:00:48.378Z,1010.5
2017-11-10T06:11:01.479Z,1010.4
2017-11-10T06:21:46.632Z,1010.4
2017-11-10T06:32:22.983Z,1010.3
2017-11-10T06:42:36.480Z,1010.1
2017-11-10T06:52:50.441Z,1009.7
2017-11-10T07:03:01.700Z,1009.3
2017-11-10T07:13:13.456Z,1009.1
2017-11-10T07:23:24.739Z,1009.1
2017-11-10T07:33:35.934Z,1009.2
2017-11-10T07:44:20.458Z,1009.2
2017-11-10T07:54:32.156Z,1009.1
2017-11-10T08:04:46.482Z,1009.0
2017-11-10T08:14:57.840Z,1008.9
2017-11-10T08:25:09.921Z,1008.7
2017-11-10T08:35:55.895Z,1008.7
2017-11-10T08:46:10.212Z,1008.4
2017-11-10T08:56:24.155Z,1008.5
2017-11-10T09:06:35.145Z,1008.4
2017-11-10T09:16:48.801Z,1008.2
2017-11-10T09:27:04.007Z,1008.2
2017-11-10T09:37:18.248Z,1008.0
2017-11-10T09:48:03.996Z,1007.8
2017-11-10T09:58:18.067Z,1007.7
2017-11-10T10:08:31.317Z,1007.5
2017-11-10T10:18:44.637Z,1007.3
2017-11-10T10:28:57.449Z,1007.2
2017-11-10T10:39:42.515Z,1006.9
2017-11-10T10:49:54.060Z,1006.7
2017-11-10T11:00:05.329Z,1006.5
2017-11-10T11:10:50.717Z,1006.2
2017-11-10T11:21:02.162Z,1006.1
2017-11-10T11:31:13.369Z,1006.0
2017-11-10T11:42:03.328Z,1005.8
2017-11-10T11:52:51.153Z,1005.5
2017-11-10T12:03:04.692Z,1005.5
2017-11-10T12:13:19.012Z,1005.4
2017-11-10T12:24:04.630Z,1005.1
2017-11-10T12:34:18.864Z,1005.0
2017-11-10T12:45:03.902Z,1004.9
2017-11-10T12:55:49.443Z,1005.1
2017-11-10T13:06:02.795Z,1005.2
2017-11-10T13:16:21.116Z,1005.2
2017-11-10T13:26:39.445Z,1005.2
2017-11-10T13:36:55.030Z,1005.4
2017-11-10T13:47:09.533Z,1005.5
2017-11-10T13:57:59.701Z,1005.7
2017-11-10T14:09:16.998Z,1006.1
2017-11-10T14:20:08.728Z,1006.2
2017-11-10T14:30:58.596Z,1006.2
2017-11-10T14:41:44.796Z,1006.5
2017-11-10T14:51:58.579Z,1006.5
2017-11-10T15:02:43.950Z,1006.7
2017-11-10T15:12:58.172Z,1006.6
2017-11-10T15:23:42.954Z,1006.8
2017-11-10T15:33:54.799Z,1007.0
2017-11-10T15:44:10.107Z,1007.0
2017-11-10T15:54:24.074Z,1007.1
2017-11-10T16:04:40.721Z,1007.2
2017-11-10T16:14:54.088Z,1007.4
2017-11-10T16:25:38.697Z,1007.4
2017-11-10T16:35:52.394Z,1007.7
2017-11-10T16:46:06.442Z,1007.6
2017-11-10T16:56:17.949Z,1007.8
2017-11-10T17:07:03.369Z,1008.0
2017-11-10T17:17:16.202Z,1008.1
2017-11-10T17:27:30.295Z,1008.2
2017-11-10T17:37:44.398Z,1008.3
2017-11-10T17:48:29.978Z,1008.4
2017-11-10T17:58:43.580Z,1008.5
2017-11-10T18:08:58.788Z,1008.5
2017-11-10T18:19:13.274Z,1008.5
2017-11-10T18:29:27.497Z,1008.6
2017-11-10T18:39:41.455Z,1008.8
2017-11-10T18:49:52.804Z,1008.8
2017-11-10T19:00:08.894Z,1008.7
2017-11-10T19:10:23.383Z,1008.7
2017-11-10T19:20:37.241Z,1008.6
2017-11-10T19:31:22.936Z,1008.7
2017-11-10T19:41:38.052Z,1008.6
2017-11-10T19:51:51.905Z,1008.7
2017-11-10T20:02:10.891Z,1008.9
2017-11-10T20:12:27.614Z,1009.1
2017-11-10T20:23:15.870Z,1008.8
2017-11-10T20:33:35.963Z,1009.1
2017-11-10T20:43:51.428Z,1008.7
2017-11-10T20:54:45.915Z,1008.9
2017-11-10T21:05:52.948Z,1008.8
2017-11-10T21:16:41.498Z,1008.7
2017-11-10T21:26:55.187Z,1008.8
2017-11-10T21:37:09.577Z,1009.0
2017-11-10T21:47:24.386Z,1009.0
2017-11-10T21:58:09.345Z,1009.4
2017-11-10T22:08:22.825Z,1009.1
2017-11-10T22:18:37.076Z,1008.9
2017-11-10T22:28:51.375Z,1009.0
2017-11-10T22:39:36.018Z,1008.9
2017-11-10T22:51:46.333Z,1008.7
2017-11-10T23:02:31.497Z,1008.7
2017-11-10T23:12:45.234Z,1008.7
2017-11-10T23:23:30.537Z,1008.5
2017-11-10T23:33:45.439Z,1008.4
2017-11-10T23:43:59.219Z,1008.4
2017-11-10T23:54:13.432Z,1008.3
